Time;durP1;ratioP1;P1;durP2;ratioP2;P2;SDS_P1;SDS_P2;PMS_P1;PMS_P2;Temp;Humidity;BMP_temperature;BMP_pressure;BME280_temperature;BME280_humidity;BME280_pressure;Samples;Min_cycle;Max_cycle;Signal;HPM_P1;HPM_P2
2022/06/29 00:47:25;;;;;;;4.82;2.72;;;;;;;;;;5043752;28;20048;-70
2022/06/29 00:49:52;;;;;;;3.58;2.85;;;;;;;;;;5071025;28;20106;-69
2022/06/29 00:52:19;;;;;;;3.90;3.45;;;;;;;;;;5071721;28;20071;-70
2022/06/29 00:54:46;;;;;;;4.00;3.60;;;;;;;;;;5071340;28;20052;-69
2022/06/29 00:57:16;;;;;;;8.07;3.80;;;;;;;;;;5071721;28;20060;-69
2022/06/29 00:59:44;;;;;;;4.95;3.40;;;;;;;;;;5071236;28;20037;-69
2022/06/29 01:02:10;;;;;;;8.30;3.35;;;;;;;;;;5053851;28;20102;-68
2022/06/29 01:04:36;;;;;;;5.28;3.35;;;;;;;;;;5071435;28;20040;-69
2022/06/29 01:07:02;;;;;;;4.03;3.70;;;;;;;;;;5071274;28;20508;-68
2022/06/29 01:09:27;;;;;;;8.38;3.60;;;;;;;;;;5071404;28;20047;-69
2022/06/29 01:11:53;;;;;;;7.15;3.90;;;;;;;;;;5053610;28;20127;-69
2022/06/29 01:14:19;;;;;;;6.05;3.72;;;;;;;;;;5071490;28;20602;-69
2022/06/29 01:16:46;;;;;;;5.30;3.65;;;;;;;;;;5071185;28;20044;-69
2022/06/29 01:19:12;;;;;;;3.80;3.50;;;;;;;;;;5053547;28;20052;-69
2022/06/29 01:21:38;;;;;;;3.97;3.63;;;;;;;;;;5071667;28;20052;-68
2022/06/29 01:24:04;;;;;;;4.68;3.75;;;;;;;;;;5053219;28;20040;-70
2022/06/29 01:26:30;;;;;;;3.58;3.28;;;;;;;;;;5071208;28;20052;-70
2022/06/29 01:28:56;;;;;;;7.82;3.90;;;;;;;;;;5070621;28;20122;-70
2022/06/29 01:31:22;;;;;;;3.88;3.47;;;;;;;;;;5070983;28;20428;-69
2022/06/29 01:33:48;;;;;;;5.25;3.75;;;;;;;;;;5070678;28;20531;-71
2022/06/29 01:36:14;;;;;;;12.10;4.07;;;;;;;;;;5053075;28;20048;-70
2022/06/29 01:38:40;;;;;;;5.05;4.32;;;;;;;;;;5070853;28;20122;-69
2022/06/29 01:41:08;;;;;;;6.03;3.63;;;;;;;;;;5070510;28;20052;-69
2022/06/29 01:43:34;;;;;;;8.20;4.10;;;;;;;;;;5070946;28;20502;-68
2022/06/29 01:46:00;;;;;;;5.97;4.00;;;;;;;;;;5070283;28;20056;-70
2022/06/29 01:48:26;;;;;;;4.32;3.85;;;;;;;;;;5070723;28;20052;-70
2022/06/29 01:50:52;;;;;;;9.75;3.70;;;;;;;;;;5070310;28;20512;-69
2022/06/29 01:53:18;;;;;;;4.85;4.05;;;;;;;;;;5070684;28;20071;-70
2022/06/29 01:55:44;;;;;;;6.50;4.80;;;;;;;;;;5069315;28;20519;-69
2022/06/29 01:58:10;;;;;;;6.95;4.30;;;;;;;;;;5070583;28;20102;-69
2022/06/29 02:00:36;;;;;;;10.55;4.25;;;;;;;;;;5070282;28;20051;-73
2022/06/29 02:03:02;;;;;;;9.50;4.20;;;;;;;;;;5052123;28;20036;-69
2022/06/29 02:05:28;;;;;;;10.20;5.18;;;;;;;;;;5070305;28;20049;-70
2022/06/29 02:07:53;;;;;;;5.05;4.30;;;;;;;;;;5052309;28;20040;-69
2022/06/29 02:10:19;;;;;;;8.70;4.35;;;;;;;;;;5070096;28;20063;-69
2022/06/29 02:12:45;;;;;;;9.75;4.70;;;;;;;;;;5051874;28;20055;-70
2022/06/29 02:15:11;;;;;;;4.90;3.83;;;;;;;;;;5070157;28;20055;-69
2022/06/29 02:17:37;;;;;;;5.45;4.00;;;;;;;;;;5070073;28;20049;-69
2022/06/29 02:20:03;;;;;;;6.00;4.00;;;;;;;;;;5069777;28;20044;-71
2022/06/29 02:22:29;;;;;;;5.15;3.65;;;;;;;;;;5070371;28;20067;-68
2022/06/29 02:24:55;;;;;;;9.65;3.80;;;;;;;;;;5070353;28;20110;-70
2022/06/29 02:27:28;;;;;;;4.72;3.35;;;;;;;;;;5190777;27;20140;-68
2022/06/29 02:29:55;;;;;;;6.53;3.47;;;;;;;;;;5169360;27;20169;-68
2022/06/29 02:35:05;;;;;;;7.95;3.92;;;;;;;;;;5169136;27;20045;-70
2022/06/29 02:37:31;;;;;;;7.38;3.67;;;;;;;;;;5150709;27;20388;-69
2022/06/29 02:39:57;;;;;;;6.22;3.80;;;;;;;;;;5150493;27;20121;-69
2022/06/29 02:42:23;;;;;;;10.07;4.20;;;;;;;;;;5169176;27;20408;-70
2022/06/29 02:44:49;;;;;;;7.95;4.15;;;;;;;;;;5169064;27;20042;-70
2022/06/29 02:47:16;;;;;;;5.38;4.07;;;;;;;;;;5169201;27;20441;-70
2022/06/29 02:49:42;;;;;;;12.65;4.20;;;;;;;;;;5150852;27;20030;-70
2022/06/29 02:52:09;;;;;;;4.80;3.80;;;;;;;;;;5168886;27;20859;-71
2022/06/29 02:54:35;;;;;;;7.35;4.20;;;;;;;;;;5169058;27;20053;-70
2022/06/29 02:57:01;;;;;;;6.30;4.38;;;;;;;;;;5168692;27;20035;-70
2022/06/29 02:59:27;;;;;;;6.93;3.88;;;;;;;;;;5168867;27;20074;-69
2022/06/29 03:01:53;;;;;;;4.82;4.05;;;;;;;;;;5167686;27;20126;-70
2022/06/29 03:04:19;;;;;;;5.97;4.28;;;;;;;;;;5147905;27;20026;-69
2022/06/29 03:06:45;;;;;;;6.43;3.80;;;;;;;;;;5148015;27;20409;-69
2022/06/29 03:09:11;;;;;;;5.85;4.22;;;;;;;;;;5147657;27;20038;-69
2022/06/29 03:11:38;;;;;;;11.23;3.85;;;;;;;;;;5147989;27;20038;-70
2022/06/29 03:14:03;;;;;;;9.50;4.10;;;;;;;;;;5128936;27;20122;-71
2022/06/29 03:16:29;;;;;;;3.53;3.20;;;;;;;;;;5147896;27;20401;-70
2022/06/29 03:18:56;;;;;;;9.57;3.55;;;;;;;;;;5147939;27;20038;-69
2022/06/29 03:21:21;;;;;;;4.43;3.70;;;;;;;;;;5147711;27;20121;-70
2022/06/29 03:23:47;;;;;;;3.70;3.40;;;;;;;;;;5129278;27;20122;-70
2022/06/29 03:26:13;;;;;;;5.10;3.67;;;;;;;;;;5147236;27;20058;-70
2022/06/29 03:28:39;;;;;;;4.25;3.20;;;;;;;;;;5147639;27;20031;-71
2022/06/29 03:31:05;;;;;;;6.82;3.33;;;;;;;;;;5147138;27;20178;-70
2022/06/29 03:33:31;;;;;;;9.32;3.33;;;;;;;;;;5147572;27;20083;-70
2022/06/29 03:35:57;;;;;;;5.97;3.45;;;;;;;;;;5147106;27;20050;-70
2022/06/29 03:38:23;;;;;;;6.07;3.10;;;;;;;;;;5136115;27;20034;-69
2022/06/29 03:40:49;;;;;;;6.28;3.50;;;;;;;;;;5133225;27;20540;-71
2022/06/29 03:43:15;;;;;;;3.85;3.08;;;;;;;;;;5133437;27;20039;-70
2022/06/29 03:45:41;;;;;;;8.82;3.22;;;;;;;;;;5133364;27;20466;-70
2022/06/29 03:48:07;;;;;;;5.45;3.00;;;;;;;;;;5133170;27;20042;-71
2022/06/29 03:50:33;;;;;;;3.22;2.92;;;;;;;;;;5133340;27;20027;-69
2022/06/29 03:53:00;;;;;;;6.35;2.70;;;;;;;;;;5114928;27;20042;-70
2022/06/29 03:55:26;;;;;;;3.13;2.83;;;;;;;;;;5114922;27;20031;-71
2022/06/29 03:57:53;;;;;;;5.50;2.97;;;;;;;;;;5133102;27;20080;-70
2022/06/29 04:00:19;;;;;;;5.07;2.75;;;;;;;;;;5133042;27;20039;-70
2022/06/29 04:02:46;;;;;;;5.03;2.90;;;;;;;;;;5114741;27;20031;-70
2022/06/29 04:05:12;;;;;;;4.18;2.90;;;;;;;;;;5132880;27;20454;-70
2022/06/29 04:07:38;;;;;;;3.50;2.78;;;;;;;;;;5133418;27;20027;-69
2022/06/29 04:10:04;;;;;;;3.97;3.10;;;;;;;;;;5132547;27;20031;-71
2022/06/29 04:12:31;;;;;;;2.97;2.70;;;;;;;;;;5133101;27;20035;-70
2022/06/29 04:14:57;;;;;;;3.13;2.85;;;;;;;;;;5132452;27;20034;-70
2022/06/29 04:17:23;;;;;;;2.83;2.63;;;;;;;;;;5132670;27;20030;-70
2022/06/29 04:19:51;;;;;;;5.55;2.70;;;;;;;;;;5132894;27;20039;-68
2022/06/29 04:22:17;;;;;;;2.97;2.55;;;;;;;;;;5133226;27;20088;-69
2022/06/29 04:24:43;;;;;;;4.63;2.50;;;;;;;;;;5114128;27;20135;-68
2022/06/29 04:27:09;;;;;;;4.82;2.50;;;;;;;;;;5132246;27;20607;-69
2022/06/29 04:29:35;;;;;;;4.85;2.75;;;;;;;;;;5132500;27;20031;-69
2022/06/29 04:32:01;;;;;;;6.97;2.83;;;;;;;;;;5114024;27;20038;-71
2022/06/29 04:34:27;;;;;;;3.58;2.60;;;;;;;;;;5114137;27;20106;-69
2022/06/29 04:36:53;;;;;;;5.93;3.20;;;;;;;;;;5132461;27;20126;-70
2022/06/29 04:39:19;;;;;;;4.43;3.00;;;;;;;;;;5132489;27;20035;-69
2022/06/29 04:41:45;;;;;;;2.60;2.40;;;;;;;;;;5132322;27;20039;-70
2022/06/29 04:44:11;;;;;;;2.70;2.40;;;;;;;;;;5132185;27;20532;-69
2022/06/29 04:46:37;;;;;;;5.72;2.65;;;;;;;;;;5132155;27;20075;-71
2022/06/29 04:49:03;;;;;;;4.38;2.60;;;;;;;;;;5112621;27;20565;-70
2022/06/29 04:51:30;;;;;;;3.10;2.60;;;;;;;;;;5132002;27;20035;-71
2022/06/29 04:53:57;;;;;;;2.50;2.30;;;;;;;;;;5131868;27;20023;-70
2022/06/29 04:56:27;;;;;;;2.60;2.40;;;;;;;;;;5131988;27;20217;-70
2022/06/29 04:58:53;;;;;;;6.18;2.42;;;;;;;;;;5113760;27;20023;-70
2022/06/29 05:01:22;;;;;;;2.53;2.33;;;;;;;;;;5096784;27;20047;-70
2022/06/29 05:03:49;;;;;;;3.60;2.50;;;;;;;;;;5132252;27;20091;-69
2022/06/29 05:06:15;;;;;;;7.20;2.40;;;;;;;;;;5131508;27;20050;-70
2022/06/29 05:08:41;;;;;;;5.95;2.28;;;;;;;;;;5132039;27;20031;-70
2022/06/29 05:11:07;;;;;;;4.32;2.60;;;;;;;;;;5096237;27;20098;-69
2022/06/29 05:13:33;;;;;;;2.85;2.38;;;;;;;;;;5131777;27;20034;-69
2022/06/29 05:15:58;;;;;;;2.53;2.35;;;;;;;;;;5131385;27;20045;-70
2022/06/29 05:18:25;;;;;;;5.03;2.30;;;;;;;;;;5131825;27;20070;-70
2022/06/29 05:20:52;;;;;;;4.07;2.60;;;;;;;;;;5131457;27;20672;-70
2022/06/29 05:23:19;;;;;;;2.78;2.58;;;;;;;;;;5131385;27;20032;-70
2022/06/29 05:25:45;;;;;;;3.35;2.30;;;;;;;;;;5131217;27;20062;-70
2022/06/29 05:28:11;;;;;;;2.83;2.30;;;;;;;;;;5096115;27;20027;-70
2022/06/29 05:30:37;;;;;;;2.50;2.30;;;;;;;;;;5131382;27;20035;-69
2022/06/29 05:33:04;;;;;;;6.05;2.72;;;;;;;;;;5131252;27;20470;-70
2022/06/29 05:35:33;;;;;;;2.40;2.20;;;;;;;;;;5131268;27;20532;-71
2022/06/29 05:38:00;;;;;;;2.70;2.05;;;;;;;;;;5113367;27;20524;-71
2022/06/29 05:40:26;;;;;;;7.88;2.40;;;;;;;;;;5131319;27;20446;-70
2022/06/29 05:42:52;;;;;;;11.88;2.20;;;;;;;;;;5112857;27;20096;-71
2022/06/29 05:45:18;;;;;;;2.10;2.00;;;;;;;;;;5112368;27;20527;-70
2022/06/29 05:47:44;;;;;;;3.50;2.03;;;;;;;;;;5131231;27;20034;-70
2022/06/29 05:50:10;;;;;;;2.85;1.98;;;;;;;;;;5130986;27;20509;-69
2022/06/29 05:52:37;;;;;;;2.00;1.90;;;;;;;;;;5131167;27;20035;-71
2022/06/29 05:55:06;;;;;;;2.85;1.98;;;;;;;;;;5112456;27;20030;-70
2022/06/29 05:57:33;;;;;;;2.22;2.03;;;;;;;;;;5112926;27;20059;-69
2022/06/29 06:00:01;;;;;;;2.30;2.10;;;;;;;;;;5130406;27;20528;-70
2022/06/29 06:02:37;;;;;;;2.85;2.30;;;;;;;;;;5130849;27;20023;-71
2022/06/29 06:05:03;;;;;;;3.30;2.25;;;;;;;;;;5130437;27;20039;-70
2022/06/29 06:07:29;;;;;;;4.97;2.40;;;;;;;;;;5130955;27;20083;-70
2022/06/29 06:09:55;;;;;;;2.30;2.10;;;;;;;;;;5131034;27;20066;-69
2022/06/29 06:12:21;;;;;;;1.85;1.75;;;;;;;;;;5130725;27;20035;-70
2022/06/29 06:14:47;;;;;;;2.47;2.20;;;;;;;;;;5130825;27;20037;-71
2022/06/29 06:17:13;;;;;;;3.05;2.47;;;;;;;;;;5130644;27;20047;-70
2022/06/29 06:19:39;;;;;;;2.40;2.17;;;;;;;;;;5130897;27;20080;-70
2022/06/29 06:22:05;;;;;;;3.20;2.00;;;;;;;;;;5112190;28;20038;-70
2022/06/29 06:24:31;;;;;;;2.60;2.40;;;;;;;;;;5130943;27;20095;-70
2022/06/29 06:26:58;;;;;;;4.32;2.25;;;;;;;;;;5130592;27;20065;-69
2022/06/29 06:29:24;;;;;;;2.88;2.20;;;;;;;;;;5130852;27;20039;-69
2022/06/29 06:31:50;;;;;;;2.90;2.08;;;;;;;;;;5130647;27;20038;-71
2022/06/29 06:34:16;;;;;;;2.45;2.25;;;;;;;;;;5130466;27;20035;-71
2022/06/29 06:36:42;;;;;;;2.90;2.10;;;;;;;;;;5130577;27;20042;-71
2022/06/29 06:39:08;;;;;;;3.10;2.10;;;;;;;;;;5111945;27;20081;-71
2022/06/29 06:41:34;;;;;;;2.45;1.83;;;;;;;;;;5130497;27;20509;-70
2022/06/29 06:44:00;;;;;;;3.67;2.10;;;;;;;;;;5111758;28;20087;-70
2022/06/29 06:46:26;;;;;;;2.22;2.13;;;;;;;;;;5130352;27;20055;-70
2022/06/29 06:48:52;;;;;;;2.38;2.10;;;;;;;;;;5130671;27;20024;-70
2022/06/29 06:51:19;;;;;;;3.45;2.30;;;;;;;;;;5130154;27;20062;-69
2022/06/29 06:53:45;;;;;;;6.43;2.30;;;;;;;;;;5130597;27;20034;-70
2022/06/29 06:56:11;;;;;;;4.43;2.40;;;;;;;;;;5130126;27;20039;-70
2022/06/29 06:58:37;;;;;;;3.85;2.13;;;;;;;;;;5130414;27;20118;-70
2022/06/29 07:01:03;;;;;;;3.85;2.05;;;;;;;;;;5130041;27;20122;-69
2022/06/29 07:03:31;;;;;;;4.13;2.30;;;;;;;;;;5130389;27;20038;-71
2022/06/29 07:06:00;;;;;;;3.60;2.20;;;;;;;;;;5130275;27;20390;-71
2022/06/29 07:08:27;;;;;;;4.20;2.03;;;;;;;;;;5130310;27;20425;-71
2022/06/29 07:10:54;;;;;;;2.40;2.20;;;;;;;;;;5130235;27;20030;-70
2022/06/29 07:13:19;;;;;;;3.13;2.00;;;;;;;;;;5132377;27;20031;-70
2022/06/29 07:15:45;;;;;;;2.28;2.08;;;;;;;;;;5134154;27;20035;-71
2022/06/29 07:18:11;;;;;;;4.22;2.63;;;;;;;;;;5133916;27;20031;-70
2022/06/29 07:20:37;;;;;;;3.75;2.42;;;;;;;;;;5134065;27;20046;-70
2022/06/29 07:23:03;;;;;;;4.75;2.50;;;;;;;;;;5133785;27;20026;-71
2022/06/29 07:25:29;;;;;;;6.15;2.58;;;;;;;;;;5133533;27;20035;-70
2022/06/29 07:27:55;;;;;;;8.63;2.70;;;;;;;;;;5133924;27;20084;-70
2022/06/29 07:30:21;;;;;;;3.13;2.50;;;;;;;;;;5133398;27;20031;-69
2022/06/29 07:32:47;;;;;;;5.32;2.38;;;;;;;;;;5134192;27;20037;-71
2022/06/29 07:35:13;;;;;;;2.65;2.45;;;;;;;;;;5133342;27;20171;-70
2022/06/29 07:37:39;;;;;;;3.08;2.10;;;;;;;;;;5133764;27;20039;-71
2022/06/29 07:40:05;;;;;;;2.83;2.08;;;;;;;;;;5133323;27;20091;-70
2022/06/29 07:42:33;;;;;;;2.55;2.35;;;;;;;;;;5133533;27;20413;-71
2022/06/29 07:44:59;;;;;;;6.93;2.60;;;;;;;;;;5133617;27;20095;-71
2022/06/29 07:47:25;;;;;;;3.20;2.30;;;;;;;;;;5132940;27;20039;-71
2022/06/29 07:49:51;;;;;;;3.63;2.20;;;;;;;;;;5133393;27;20418;-70
2022/06/29 07:52:17;;;;;;;2.67;2.47;;;;;;;;;;5133105;27;20047;-71
2022/06/29 07:54:44;;;;;;;3.90;2.80;;;;;;;;;;5133406;27;20027;-70
2022/06/29 07:57:10;;;;;;;4.15;2.13;;;;;;;;;;5132806;27;20043;-69
2022/06/29 07:59:36;;;;;;;5.25;2.20;;;;;;;;;;5133506;27;20023;-69
2022/06/29 08:02:02;;;;;;;2.53;2.33;;;;;;;;;;5133309;27;20050;-71
2022/06/29 08:04:28;;;;;;;3.63;2.40;;;;;;;;;;5114542;27;20023;-71
2022/06/29 08:06:54;;;;;;;3.53;2.50;;;;;;;;;;5114602;27;20343;-70
2022/06/29 08:09:20;;;;;;;2.40;2.20;;;;;;;;;;5132882;27;20039;-71
2022/06/29 08:11:47;;;;;;;3.92;2.08;;;;;;;;;;5133092;27;20208;-70
2022/06/29 08:14:13;;;;;;;3.70;2.30;;;;;;;;;;5132878;27;20042;-71
2022/06/29 08:16:39;;;;;;;3.72;2.25;;;;;;;;;;5132914;27;20039;-72
2022/06/29 08:19:05;;;;;;;2.00;1.80;;;;;;;;;;5132595;27;20462;-73
2022/06/29 08:21:32;;;;;;;2.63;2.42;;;;;;;;;;5114580;27;20035;-71
2022/06/29 08:23:58;;;;;;;3.70;2.10;;;;;;;;;;5132768;27;20031;-71
2022/06/29 08:26:24;;;;;;;2.38;2.17;;;;;;;;;;5132027;27;20443;-71
2022/06/29 08:28:50;;;;;;;3.47;2.30;;;;;;;;;;5132826;27;20039;-71
2022/06/29 08:31:16;;;;;;;2.78;2.00;;;;;;;;;;5132382;27;20058;-70
2022/06/29 08:33:42;;;;;;;2.75;1.92;;;;;;;;;;5132687;27;20035;-70
2022/06/29 08:36:08;;;;;;;3.17;1.73;;;;;;;;;;5132300;27;20122;-70
2022/06/29 08:38:34;;;;;;;1.92;1.83;;;;;;;;;;5114333;27;20457;-71
2022/06/29 08:41:00;;;;;;;2.83;2.00;;;;;;;;;;5132479;27;20595;-70
2022/06/29 08:43:26;;;;;;;4.63;2.10;;;;;;;;;;5113966;27;20126;-70
2022/06/29 08:45:53;;;;;;;5.45;2.05;;;;;;;;;;5132394;27;20050;-71
2022/06/29 08:48:19;;;;;;;4.05;1.95;;;;;;;;;;5132083;27;20039;-70
2022/06/29 08:50:54;;;;;;;3.47;1.80;;;;;;;;;;5132257;27;20505;-70
2022/06/29 08:53:20;;;;;;;3.78;2.30;;;;;;;;;;5113670;27;20133;-72
2022/06/29 08:55:49;;;;;;;2.53;2.10;;;;;;;;;;5132220;27;20050;-70
2022/06/29 08:58:21;;;;;;;2.00;1.90;;;;;;;;;;5113674;27;20039;-72
2022/06/29 09:00:47;;;;;;;4.30;1.85;;;;;;;;;;5132143;27;20497;-72
2022/06/29 09:03:15;;;;;;;2.10;1.88;;;;;;;;;;5131593;27;20042;-71
2022/06/29 09:05:45;;;;;;;2.40;2.08;;;;;;;;;;5131970;27;20047;-71
2022/06/29 09:08:11;;;;;;;1.90;1.80;;;;;;;;;;5131693;27;20081;-72
2022/06/29 09:10:37;;;;;;;2.00;1.80;;;;;;;;;;5131792;27;20109;-72
2022/06/29 09:13:04;;;;;;;3.97;1.80;;;;;;;;;;5132071;27;20573;-72
2022/06/29 09:15:32;;;;;;;1.90;1.77;;;;;;;;;;5113620;27;20100;-70
2022/06/29 09:17:58;;;;;;;1.90;1.80;;;;;;;;;;5096697;27;20041;-70
2022/06/29 09:20:24;;;;;;;3.75;1.70;;;;;;;;;;5131350;27;20397;-71
2022/06/29 09:22:53;;;;;;;2.70;1.63;;;;;;;;;;5131638;27;20042;-70
2022/06/29 09:25:23;;;;;;;2.03;1.50;;;;;;;;;;5131087;27;20465;-71
2022/06/29 09:27:49;;;;;;;1.80;1.70;;;;;;;;;;5131652;27;20505;-71
2022/06/29 09:30:27;;;;;;;1.73;1.63;;;;;;;;;;5132076;27;20083;-71
2022/06/29 09:33:00;;;;;;;2.13;2.00;;;;;;;;;;5132688;27;20450;-70
2022/06/29 09:35:27;;;;;;;2.45;1.77;;;;;;;;;;5112476;27;20117;-69
2022/06/29 09:37:53;;;;;;;4.13;2.00;;;;;;;;;;5131487;27;20041;-71
2022/06/29 09:40:19;;;;;;;2.05;1.77;;;;;;;;;;5112710;27;20408;-71
2022/06/29 09:42:45;;;;;;;2.88;1.88;;;;;;;;;;5131455;27;20039;-71
2022/06/29 09:45:11;;;;;;;3.45;2.10;;;;;;;;;;5095809;27;20035;-71
2022/06/29 09:47:37;;;;;;;2.50;1.92;;;;;;;;;;5112852;27;20043;-71
2022/06/29 09:50:03;;;;;;;2.30;2.10;;;;;;;;;;5131764;27;20046;-70
2022/06/29 09:52:31;;;;;;;2.97;1.90;;;;;;;;;;5130943;27;20037;-71
2022/06/29 09:54:57;;;;;;;3.13;1.92;;;;;;;;;;5113019;27;20501;-71
2022/06/29 09:57:25;;;;;;;2.30;1.90;;;;;;;;;;5130679;27;20039;-71
2022/06/29 10:02:43;;;;;;;2.53;1.92;;;;;;;;;;5131055;27;20045;-71
2022/06/29 10:05:09;;;;;;;1.92;1.83;;;;;;;;;;5131165;27;20027;-71
2022/06/29 10:07:36;;;;;;;2.20;1.98;;;;;;;;;;5130478;27;20107;-71
2022/06/29 10:10:03;;;;;;;2.30;1.80;;;;;;;;;;5130889;27;20039;-71
2022/06/29 10:15:33;;;;;;;2.00;1.80;;;;;;;;;;5130725;27;20043;-70
2022/06/29 10:18:25;;;;;;;2.95;1.90;;;;;;;;;;5130679;27;20027;-70
2022/06/29 10:20:51;;;;;;;3.10;1.83;;;;;;;;;;5073849;27;20096;-71
2022/06/29 10:23:53;;;;;;;3.75;1.90;;;;;;;;;;5130539;27;20037;-70
2022/06/29 10:26:47;;;;;;;6.07;2.25;;;;;;;;;;5026332;28;20046;-71
2022/06/29 10:29:19;;;;;;;1.80;1.70;;;;;;;;;;5128389;27;20546;-71
2022/06/29 10:31:54;;;;;;;1.98;1.88;;;;;;;;;;5130616;27;20023;-71
2022/06/29 10:34:26;;;;;;;2.83;2.63;;;;;;;;;;5130470;27;20027;-71
2022/06/29 10:37:08;;;;;;;3.22;2.00;;;;;;;;;;5130516;27;20131;-71
2022/06/29 10:39:34;;;;;;;3.67;1.90;;;;;;;;;;5130455;27;20042;-70
2022/06/29 10:45:03;;;;;;;1.90;1.70;;;;;;;;;;5115188;27;20122;-71
2022/06/29 10:47:31;;;;;;;4.40;1.80;;;;;;;;;;5131014;27;20093;-72
2022/06/29 10:52:41;;;;;;;1.83;1.70;;;;;;;;;;5134575;27;20035;-72
2022/06/29 10:55:07;;;;;;;2.75;1.90;;;;;;;;;;5116419;27;20360;-70
2022/06/29 10:57:34;;;;;;;3.53;1.98;;;;;;;;;;5134891;27;20075;-70
2022/06/29 11:00:00;;;;;;;2.40;1.92;;;;;;;;;;5134694;27;20911;-70
2022/06/29 11:02:26;;;;;;;2.15;1.88;;;;;;;;;;5133812;27;20076;-70
2022/06/29 11:04:52;;;;;;;2.13;1.90;;;;;;;;;;5116166;27;20039;-70
2022/06/29 11:12:50;;;;;;;4.25;1.90;;;;;;;;;;5134255;27;20038;-71
2022/06/29 11:15:42;;;;;;;2.08;1.92;;;;;;;;;;5133962;27;20050;-71
2022/06/29 11:18:08;;;;;;;1.70;1.60;;;;;;;;;;5115619;27;20050;-73
2022/06/29 11:20:35;;;;;;;4.18;2.03;;;;;;;;;;5133959;27;20030;-71
2022/06/29 11:23:01;;;;;;;3.53;2.15;;;;;;;;;;5134053;27;20071;-71
2022/06/29 11:25:28;;;;;;;2.33;1.90;;;;;;;;;;5133364;27;20051;-70
2022/06/29 11:27:54;;;;;;;3.47;2.10;;;;;;;;;;5115578;27;20042;-70
2022/06/29 11:30:21;;;;;;;1.73;1.63;;;;;;;;;;5133651;27;20031;-71
2022/06/29 11:32:48;;;;;;;2.05;1.95;;;;;;;;;;5133869;27;20477;-71
2022/06/29 11:35:18;;;;;;;1.77;1.67;;;;;;;;;;5133924;27;20126;-71
2022/06/29 11:37:50;;;;;;;1.95;1.85;;;;;;;;;;5133632;27;20106;-71
2022/06/29 11:40:20;;;;;;;4.40;2.08;;;;;;;;;;5115750;27;20417;-72
2022/06/29 11:43:04;;;;;;;3.93;2.00;;;;;;;;;;5133611;27;20035;-72
2022/06/29 11:45:36;;;;;;;1.70;1.60;;;;;;;;;;5114978;27;20035;-71
2022/06/29 11:48:09;;;;;;;1.92;1.70;;;;;;;;;;5133414;27;20512;-71
2022/06/29 11:50:40;;;;;;;2.08;1.88;;;;;;;;;;5133424;27;20031;-70
2022/06/29 11:53:06;;;;;;;2.00;1.90;;;;;;;;;;5133402;27;20043;-70
2022/06/29 11:55:40;;;;;;;2.10;2.00;;;;;;;;;;5133163;27;20466;-72
2022/06/29 11:58:08;;;;;;;2.65;1.80;;;;;;;;;;5132665;27;20031;-72
2022/06/29 12:00:34;;;;;;;2.75;1.75;;;;;;;;;;5132864;27;20031;-73
2022/06/29 12:03:00;;;;;;;2.20;2.03;;;;;;;;;;5114717;27;20137;-71
2022/06/29 12:05:26;;;;;;;1.90;1.75;;;;;;;;;;5132952;27;20035;-71
2022/06/29 12:07:52;;;;;;;2.30;2.08;;;;;;;;;;5133001;27;20077;-72
2022/06/29 12:10:18;;;;;;;4.20;1.67;;;;;;;;;;5132894;27;20117;-69
2022/06/29 12:12:44;;;;;;;3.30;2.10;;;;;;;;;;5133073;27;20042;-71
2022/06/29 12:15:11;;;;;;;3.58;1.58;;;;;;;;;;5098064;27;20485;-72
2022/06/29 12:17:37;;;;;;;2.58;1.92;;;;;;;;;;5114090;27;20118;-71
2022/06/29 12:20:03;;;;;;;2.35;2.08;;;;;;;;;;5132870;27;20084;-71
2022/06/29 12:22:29;;;;;;;2.05;1.95;;;;;;;;;;5114214;27;20039;-72
2022/06/29 12:24:55;;;;;;;4.25;2.10;;;;;;;;;;5132985;27;20037;-70
2022/06/29 12:27:21;;;;;;;6.28;2.33;;;;;;;;;;5132263;27;20058;-72
2022/06/29 12:29:47;;;;;;;2.15;2.05;;;;;;;;;;5114984;27;20031;-71
2022/06/29 12:32:13;;;;;;;4.35;2.00;;;;;;;;;;5133730;27;20031;-72
2022/06/29 12:34:40;;;;;;;2.50;2.30;;;;;;;;;;5121762;27;20047;-71
2022/06/29 12:37:06;;;;;;;2.22;2.10;;;;;;;;;;5112036;28;20046;-71
2022/06/29 12:39:32;;;;;;;8.80;2.10;;;;;;;;;;5112121;28;20036;-71
2022/06/29 12:41:58;;;;;;;6.30;2.42;;;;;;;;;;5112022;28;20047;-71
2022/06/29 12:44:24;;;;;;;2.90;2.60;;;;;;;;;;5111730;28;20035;-71
2022/06/29 12:46:52;;;;;;;6.40;2.05;;;;;;;;;;5111633;28;20043;-70
2022/06/29 12:49:18;;;;;;;2.50;1.98;;;;;;;;;;5111999;28;20114;-72
2022/06/29 12:51:45;;;;;;;2.30;2.15;;;;;;;;;;5111488;28;20096;-70
2022/06/29 12:54:10;;;;;;;4.22;1.80;;;;;;;;;;5111725;28;20498;-71
2022/06/29 12:56:36;;;;;;;2.22;2.00;;;;;;;;;;5111296;28;20123;-70
2022/06/29 12:59:02;;;;;;;2.45;1.70;;;;;;;;;;5111590;28;20032;-69
2022/06/29 13:01:29;;;;;;;4.05;1.73;;;;;;;;;;5111351;28;20096;-71
2022/06/29 13:03:55;;;;;;;3.38;2.28;;;;;;;;;;5110232;28;20051;-71
2022/06/29 13:06:21;;;;;;;2.53;2.05;;;;;;;;;;5110947;28;20042;-71
2022/06/29 13:08:47;;;;;;;1.90;1.70;;;;;;;;;;5111270;28;20577;-70
2022/06/29 13:11:13;;;;;;;6.03;2.03;;;;;;;;;;5110277;28;20116;-69
2022/06/29 13:13:40;;;;;;;3.53;1.92;;;;;;;;;;5111007;28;20501;-71
2022/06/29 13:16:07;;;;;;;3.60;1.70;;;;;;;;;;5111276;28;20621;-70
2022/06/29 13:18:34;;;;;;;2.80;2.20;;;;;;;;;;5110609;28;20332;-71
2022/06/29 13:21:00;;;;;;;5.18;2.03;;;;;;;;;;5110970;28;20122;-70
2022/06/29 13:23:26;;;;;;;2.67;1.80;;;;;;;;;;5110638;28;20050;-72
2022/06/29 13:25:51;;;;;;;3.80;1.90;;;;;;;;;;5109399;28;20063;-71
2022/06/29 13:28:17;;;;;;;4.80;1.83;;;;;;;;;;5111385;28;20039;-71
2022/06/29 13:30:43;;;;;;;3.70;2.08;;;;;;;;;;5110680;28;20035;-71
2022/06/29 13:33:09;;;;;;;3.17;2.00;;;;;;;;;;5110688;28;20435;-71
2022/06/29 13:35:36;;;;;;;3.25;2.15;;;;;;;;;;5110716;28;20027;-71
2022/06/29 13:38:02;;;;;;;2.60;2.00;;;;;;;;;;5110562;28;20080;-71
2022/06/29 13:40:29;;;;;;;2.80;1.90;;;;;;;;;;5110515;28;20024;-71
2022/06/29 13:42:55;;;;;;;2.13;1.90;;;;;;;;;;5092364;28;20414;-70
2022/06/29 13:45:21;;;;;;;9.88;2.28;;;;;;;;;;5110643;28;20028;-72
2022/06/29 13:47:47;;;;;;;2.90;1.98;;;;;;;;;;5092033;28;20044;-71
2022/06/29 13:50:13;;;;;;;4.30;1.88;;;;;;;;;;5110787;28;20060;-70
2022/06/29 13:52:39;;;;;;;1.95;1.80;;;;;;;;;;5110159;28;20046;-71
2022/06/29 13:55:05;;;;;;;2.33;1.67;;;;;;;;;;5110779;28;20119;-72
2022/06/29 13:57:31;;;;;;;2.13;2.00;;;;;;;;;;5110361;28;20456;-71
2022/06/29 13:59:57;;;;;;;2.92;1.98;;;;;;;;;;5092651;28;20031;-70
2022/06/29 14:02:23;;;;;;;2.50;1.80;;;;;;;;;;5092342;28;20501;-71
2022/06/29 14:04:49;;;;;;;3.90;2.22;;;;;;;;;;5110466;28;20031;-70
2022/06/29 14:07:15;;;;;;;3.15;2.08;;;;;;;;;;5110358;28;20088;-71
2022/06/29 14:09:41;;;;;;;6.30;2.15;;;;;;;;;;5091902;28;20801;-72
2022/06/29 14:12:08;;;;;;;4.00;1.90;;;;;;;;;;5110495;28;20578;-72
2022/06/29 14:14:34;;;;;;;6.05;2.40;;;;;;;;;;5110353;28;20070;-72
2022/06/29 14:17:00;;;;;;;2.55;1.90;;;;;;;;;;5110283;28;20568;-71
2022/06/29 14:19:26;;;;;;;7.93;1.90;;;;;;;;;;5108898;28;20066;-72
2022/06/29 14:21:52;;;;;;;4.68;1.98;;;;;;;;;;5110497;28;20053;-72
2022/06/29 14:24:19;;;;;;;2.45;2.00;;;;;;;;;;5110315;28;20028;-70
2022/06/29 14:26:45;;;;;;;3.95;1.83;;;;;;;;;;5109614;28;20063;-70
2022/06/29 14:29:11;;;;;;;3.42;1.60;;;;;;;;;;5110047;28;20040;-70
2022/06/29 14:31:37;;;;;;;5.80;1.83;;;;;;;;;;5109361;28;20036;-72
2022/06/29 14:34:03;;;;;;;3.75;1.90;;;;;;;;;;5110021;28;20035;-70
2022/06/29 14:36:29;;;;;;;5.60;1.73;;;;;;;;;;5074495;28;20032;-71
2022/06/29 14:38:55;;;;;;;2.92;1.90;;;;;;;;;;5110134;28;20039;-71
2022/06/29 14:41:20;;;;;;;6.97;2.00;;;;;;;;;;5091754;28;20043;-70
2022/06/29 14:43:46;;;;;;;4.40;2.15;;;;;;;;;;5109614;28;20482;-70
2022/06/29 14:46:12;;;;;;;2.05;1.90;;;;;;;;;;5109938;28;20039;-70
2022/06/29 14:48:38;;;;;;;3.95;2.05;;;;;;;;;;5109687;28;20126;-71
2022/06/29 14:51:04;;;;;;;1.83;1.70;;;;;;;;;;5109665;28;20031;-72
2022/06/29 14:53:30;;;;;;;2.80;1.90;;;;;;;;;;5109374;28;20046;-70
2022/06/29 14:55:56;;;;;;;1.85;1.75;;;;;;;;;;5091691;28;20031;-71
2022/06/29 14:58:22;;;;;;;4.30;2.15;;;;;;;;;;5108337;28;20035;-72
2022/06/29 15:00:48;;;;;;;4.93;2.03;;;;;;;;;;5109680;28;20044;-70
2022/06/29 15:03:14;;;;;;;3.63;2.10;;;;;;;;;;5109862;28;20059;-71
2022/06/29 15:05:40;;;;;;;4.75;2.05;;;;;;;;;;5109411;28;20031;-72
2022/06/29 15:08:06;;;;;;;6.72;1.88;;;;;;;;;;5109842;28;20047;-71
2022/06/29 15:10:35;;;;;;;4.40;1.88;;;;;;;;;;5109382;28;20114;-71
2022/06/29 15:13:02;;;;;;;6.80;2.38;;;;;;;;;;5109491;28;20181;-72
2022/06/29 15:15:28;;;;;;;4.78;2.05;;;;;;;;;;5091499;28;20032;-72
2022/06/29 15:17:54;;;;;;;3.90;1.90;;;;;;;;;;5110070;28;20039;-72
2022/06/29 15:20:20;;;;;;;3.10;1.83;;;;;;;;;;5109745;28;20035;-71
2022/06/29 15:22:47;;;;;;;1.88;1.77;;;;;;;;;;5109276;28;20032;-71
2022/06/29 15:25:13;;;;;;;4.75;1.80;;;;;;;;;;5109936;28;20054;-70
2022/06/29 15:27:39;;;;;;;3.58;2.00;;;;;;;;;;5090628;28;20066;-71
2022/06/29 15:30:05;;;;;;;3.55;2.08;;;;;;;;;;5109646;28;20046;-72
2022/06/29 15:32:31;;;;;;;5.43;2.20;;;;;;;;;;5110084;28;20051;-70
2022/06/29 15:40:27;;;;;;;2.35;1.98;;;;;;;;;;5094883;28;20037;-72
2022/06/29 15:42:53;;;;;;;2.55;1.63;;;;;;;;;;5112642;28;20035;-71
2022/06/29 15:45:19;;;;;;;1.88;1.77;;;;;;;;;;5113111;28;20066;-71
2022/06/29 15:47:45;;;;;;;3.03;1.98;;;;;;;;;;5112526;28;20067;-71
2022/06/29 15:50:11;;;;;;;2.03;1.92;;;;;;;;;;5112894;28;20512;-72
2022/06/29 15:52:37;;;;;;;1.95;1.85;;;;;;;;;;5111166;28;20032;-70